createdAt,value
2023-06-20T00:00:28.546Z,46.16
2023-06-20T00:01:28.589Z,46.17
2023-06-20T00:02:28.737Z,46.19
2023-06-20T00:03:28.736Z,46.16
2023-06-20T00:04:28.821Z,46.17
2023-06-20T00:05:28.824Z,46.19
2023-06-20T00:06:28.882Z,46.19
2023-06-20T00:07:28.939Z,46.16
2023-06-20T00:08:29.023Z,46.21
2023-06-20T00:09:29.094Z,46.23
2023-06-20T00:10:29.223Z,46.16
2023-06-20T00:11:29.229Z,46.23
2023-06-20T00:12:29.268Z,46.24
2023-06-20T00:13:29.346Z,46.22
2023-06-20T00:14:29.425Z,46.22
2023-06-20T00:15:29.483Z,46.28
2023-06-20T00:16:29.534Z,46.27
2023-06-20T00:17:29.624Z,46.24
2023-06-20T00:18:29.667Z,46.24
2023-06-20T00:19:29.750Z,46.25
2023-06-20T00:20:29.800Z,46.21
2023-06-20T00:21:29.876Z,46.27
2023-06-20T00:22:29.939Z,46.26
2023-06-20T00:23:29.974Z,46.22
2023-06-20T00:24:30.100Z,46.21
2023-06-20T00:25:30.090Z,46.26
2023-06-20T00:26:30.164Z,46.26
2023-06-20T00:27:30.259Z,46.32
2023-06-20T00:28:30.293Z,46.28
2023-06-20T00:29:30.360Z,46.32
2023-06-20T00:30:30.414Z,46.29
2023-06-20T00:31:30.488Z,46.28
2023-06-20T00:32:30.628Z,46.30
2023-06-20T00:33:30.602Z,46.26
2023-06-20T00:34:30.689Z,46.26
2023-06-20T00:35:30.739Z,46.28
2023-06-20T00:36:30.824Z,46.30
2023-06-20T00:37:30.846Z,46.26
2023-06-20T00:38:30.929Z,46.28
2023-06-20T00:39:30.976Z,46.26
2023-06-20T00:40:31.059Z,46.32
2023-06-20T00:41:31.108Z,46.29
2023-06-20T00:42:31.201Z,46.30
2023-06-20T00:43:31.256Z,46.29
2023-06-20T00:44:31.306Z,46.27
2023-06-20T00:45:31.406Z,46.26
2023-06-20T00:46:31.464Z,46.28
2023-06-20T00:47:31.726Z,46.28
2023-06-20T00:48:31.582Z,46.33
2023-06-20T00:49:31.652Z,46.33
2023-06-20T00:50:31.672Z,46.29
2023-06-20T00:51:31.737Z,46.33
2023-06-20T00:52:31.801Z,46.37
2023-06-20T00:53:31.891Z,46.37
2023-06-20T00:54:31.949Z,46.35
2023-06-20T00:55:31.995Z,46.39
2023-06-20T00:56:32.067Z,46.33
2023-06-20T00:57:32.142Z,46.35
2023-06-20T00:58:32.186Z,46.35
2023-06-20T00:59:32.240Z,46.31
2023-06-20T01:00:32.299Z,46.34
2023-06-20T01:01:32.389Z,46.37
2023-06-20T01:02:32.562Z,46.33
2023-06-20T01:03:32.643Z,46.34
2023-06-20T01:04:32.583Z,46.34
2023-06-20T01:05:32.663Z,46.32
2023-06-20T01:06:32.701Z,46.33
2023-06-20T01:07:32.761Z,46.33
2023-06-20T01:08:32.822Z,46.34
2023-06-20T01:09:32.907Z,46.30
2023-06-20T01:10:32.987Z,46.33
2023-06-20T01:11:33.033Z,46.32
2023-06-20T01:12:33.081Z,46.35
2023-06-20T01:13:33.145Z,46.30
2023-06-20T01:14:33.226Z,46.37
2023-06-20T01:15:33.294Z,46.35
2023-06-20T01:16:33.371Z,46.33
2023-06-20T01:17:33.433Z,46.35
2023-06-20T01:18:33.481Z,46.34
2023-06-20T01:19:33.568Z,46.34
2023-06-20T01:20:33.600Z,46.35
2023-06-20T01:21:33.702Z,46.34
2023-06-20T01:22:33.748Z,46.34
2023-06-20T01:23:33.848Z,46.35
2023-06-20T01:24:33.894Z,46.39
2023-06-20T01:25:33.942Z,46.41
2023-06-20T01:26:34.027Z,46.37
2023-06-20T01:27:34.068Z,46.39
2023-06-20T01:28:34.135Z,46.35
2023-06-20T01:29:34.186Z,46.34
2023-06-20T01:30:34.269Z,46.37
2023-06-20T01:31:34.307Z,46.42
2023-06-20T01:32:34.406Z,46.36
2023-06-20T01:33:34.451Z,46.35
2023-06-20T01:34:34.512Z,46.37
2023-06-20T01:35:34.575Z,46.37
2023-06-20T01:36:34.636Z,46.34
2023-06-20T01:37:34.709Z,46.36
2023-06-20T01:38:34.776Z,46.36
2023-06-20T01:39:34.876Z,46.37
2023-06-20T01:40:34.920Z,46.43
2023-06-20T01:41:34.973Z,46.37
2023-06-20T01:42:35.035Z,46.39
2023-06-20T01:43:35.096Z,46.39
2023-06-20T01:44:35.194Z,46.41
2023-06-20T01:45:35.233Z,46.36
2023-06-20T01:46:35.308Z,46.40
2023-06-20T01:47:35.367Z,46.39
2023-06-20T01:48:35.425Z,46.35
2023-06-20T01:49:35.491Z,46.38
2023-06-20T01:50:35.526Z,46.36
2023-06-20T01:51:35.588Z,46.36
2023-06-20T01:52:35.649Z,46.36
2023-06-20T01:53:35.708Z,46.36
2023-06-20T01:54:35.824Z,46.37
2023-06-20T01:55:35.857Z,46.34
2023-06-20T01:56:35.940Z,46.37
2023-06-20T01:57:35.990Z,46.39
2023-06-20T01:58:36.060Z,46.40
2023-06-20T01:59:36.104Z,46.42
2023-06-20T02:00:36.176Z,46.40
2023-06-20T02:01:36.270Z,46.41
2023-06-20T02:02:36.333Z,46.39
2023-06-20T02:03:36.408Z,46.38
2023-06-20T02:04:36.431Z,46.41
2023-06-20T02:05:36.474Z,46.41
2023-06-20T02:06:36.544Z,46.38
2023-06-20T02:07:36.631Z,46.38
2023-06-20T02:08:36.710Z,46.41
2023-06-20T02:09:36.800Z,46.36
2023-06-20T02:10:36.865Z,46.40
2023-06-20T02:11:36.881Z,46.35
2023-06-20T02:12:36.968Z,46.37
2023-06-20T02:13:37.033Z,46.38
2023-06-20T02:14:37.089Z,46.38
2023-06-20T02:15:37.150Z,46.38
2023-06-20T02:16:37.281Z,46.40
2023-06-20T02:17:37.282Z,46.40
2023-06-20T02:18:37.337Z,46.43
2023-06-20T02:19:37.489Z,46.40
2023-06-20T02:20:37.462Z,46.40
2023-06-20T02:21:37.518Z,46.46
2023-06-20T02:22:37.601Z,46.41
2023-06-20T02:23:37.655Z,46.41
2023-06-20T02:24:37.829Z,46.41
2023-06-20T02:25:37.773Z,46.45
2023-06-20T02:26:37.861Z,46.39
2023-06-20T02:27:37.945Z,46.38
2023-06-20T02:28:37.997Z,46.36
2023-06-20T02:29:38.069Z,46.43
2023-06-20T02:30:38.115Z,46.39
2023-06-20T02:31:38.209Z,46.39
2023-06-20T02:32:38.245Z,46.41
2023-06-20T02:33:38.297Z,46.46
2023-06-20T02:34:38.328Z,46.43
2023-06-20T02:35:38.387Z,46.43
2023-06-20T02:36:38.498Z,46.42
2023-06-20T02:37:38.517Z,46.38
2023-06-20T02:38:38.607Z,46.41
2023-06-20T02:39:38.677Z,46.44
2023-06-20T02:40:38.708Z,46.48
2023-06-20T02:41:38.769Z,46.43
2023-06-20T02:42:38.850Z,46.44
2023-06-20T02:43:38.944Z,46.44
2023-06-20T02:44:39.009Z,46.41
2023-06-20T02:45:39.031Z,46.43
2023-06-20T02:46:39.141Z,46.47
2023-06-20T02:47:39.236Z,46.44
2023-06-20T02:48:39.250Z,46.42
2023-06-20T02:49:39.304Z,46.39
2023-06-20T02:50:39.343Z,46.42
2023-06-20T02:51:39.417Z,46.41
2023-06-20T02:52:39.503Z,46.41
2023-06-20T02:53:39.577Z,46.47
2023-06-20T02:54:39.608Z,46.41
2023-06-20T02:55:39.649Z,46.43
2023-06-20T02:56:39.729Z,46.42
2023-06-20T02:57:39.798Z,46.41
2023-06-20T02:58:39.859Z,46.41
2023-06-20T02:59:39.914Z,46.38
2023-06-20T03:00:40.015Z,46.41
2023-06-20T03:01:40.089Z,46.42
2023-06-20T03:02:40.170Z,46.44
2023-06-20T03:03:40.252Z,46.42
2023-06-20T03:04:40.296Z,46.44
2023-06-20T03:05:40.329Z,46.41
2023-06-20T03:06:40.394Z,46.39
2023-06-20T03:07:40.428Z,46.41
2023-06-20T03:08:40.503Z,46.43
2023-06-20T03:09:40.596Z,46.44
2023-06-20T03:10:40.627Z,46.46
2023-06-20T03:11:40.721Z,46.46
2023-06-20T03:12:40.799Z,46.46
2023-06-20T03:13:40.837Z,46.43
2023-06-20T03:14:40.887Z,46.42
2023-06-20T03:15:40.949Z,46.44
2023-06-20T03:16:41.007Z,46.43
2023-06-20T03:17:41.205Z,46.44
2023-06-20T03:18:41.148Z,46.43
2023-06-20T03:19:41.177Z,46.44
2023-06-20T03:20:41.254Z,46.45
2023-06-20T03:21:41.326Z,46.41
2023-06-20T03:22:41.368Z,46.45
2023-06-20T03:23:41.463Z,46.43
2023-06-20T03:24:41.526Z,46.48
2023-06-20T03:25:41.567Z,46.48
2023-06-20T03:26:41.656Z,46.46
2023-06-20T03:27:41.726Z,46.44
2023-06-20T03:28:41.779Z,46.41
2023-06-20T03:29:41.805Z,46.43
2023-06-20T03:30:41.886Z,46.43
2023-06-20T03:31:42.035Z,46.50
2023-06-20T03:32:42.013Z,46.41
2023-06-20T03:33:42.087Z,46.42
2023-06-20T03:34:42.159Z,46.45
2023-06-20T03:35:42.208Z,46.43
2023-06-20T03:36:42.257Z,46.41
2023-06-20T03:37:42.346Z,46.43
2023-06-20T03:38:42.393Z,46.45
2023-06-20T03:39:42.469Z,46.45
2023-06-20T03:40:42.498Z,46.41
2023-06-20T03:41:42.582Z,46.45
2023-06-20T03:42:42.618Z,46.42
2023-06-20T03:43:42.691Z,46.43
2023-06-20T03:44:42.785Z,46.45
2023-06-20T03:45:42.814Z,46.44
2023-06-20T03:46:42.923Z,46.44
2023-06-20T03:47:42.974Z,46.46
2023-06-20T03:48:43.004Z,46.43
2023-06-20T03:49:45.196Z,46.45
2023-06-20T03:50:43.248Z,46.48
2023-06-20T03:51:43.313Z,46.47
2023-06-20T03:52:43.389Z,46.44
2023-06-20T03:53:43.423Z,46.48
2023-06-20T03:54:43.517Z,46.50
2023-06-20T03:55:43.572Z,46.48
2023-06-20T03:56:43.616Z,46.50
2023-06-20T03:57:43.674Z,46.45
2023-06-20T03:58:43.729Z,46.46
2023-06-20T03:59:43.780Z,46.46
2023-06-20T04:00:43.900Z,46.45
2023-06-20T04:01:43.940Z,46.45
2023-06-20T04:02:44.044Z,46.44
2023-06-20T04:03:44.077Z,46.48
2023-06-20T04:04:44.138Z,46.47
2023-06-20T04:05:44.172Z,46.46
2023-06-20T04:06:44.264Z,46.44
2023-06-20T04:07:44.608Z,46.48
2023-06-20T04:08:44.358Z,46.47
2023-06-20T04:09:44.441Z,46.46
2023-06-20T04:10:44.526Z,46.46
2023-06-20T04:11:44.567Z,46.43
2023-06-20T04:12:44.633Z,46.46
2023-06-20T04:13:44.671Z,46.47
2023-06-20T04:14:44.740Z,46.44
2023-06-20T04:15:44.803Z,46.46
2023-06-20T04:16:44.834Z,46.45
2023-06-20T04:17:44.878Z,46.47
2023-06-20T04:18:44.918Z,46.46
2023-06-20T04:19:45.003Z,46.45
2023-06-20T04:20:44.995Z,46.45
2023-06-20T04:21:45.051Z,46.44
2023-06-20T04:22:45.123Z,46.45
2023-06-20T04:23:45.155Z,46.42
2023-06-20T04:24:45.340Z,46.45
2023-06-20T04:25:45.272Z,46.43
2023-06-20T04:26:45.324Z,46.45
2023-06-20T04:27:45.440Z,46.41
2023-06-20T04:28:45.465Z,46.45
2023-06-20T04:29:45.529Z,46.46
2023-06-20T04:30:45.645Z,46.46
2023-06-20T04:31:45.659Z,46.49
2023-06-20T04:32:45.780Z,46.44
2023-06-20T04:33:45.827Z,46.51
2023-06-20T04:34:45.834Z,46.48
2023-06-20T04:35:45.911Z,46.48
2023-06-20T04:36:45.983Z,46.46
2023-06-20T04:37:46.038Z,46.46
2023-06-20T04:38:46.104Z,46.43
2023-06-20T04:39:46.179Z,46.43
2023-06-20T04:40:46.234Z,46.50
2023-06-20T04:41:46.326Z,46.45
2023-06-20T04:42:46.375Z,46.46
2023-06-20T04:43:46.399Z,46.43
2023-06-20T04:44:46.489Z,46.43
2023-06-20T04:45:46.572Z,46.42
2023-06-20T04:46:46.640Z,46.46
2023-06-20T04:47:46.738Z,46.45
2023-06-20T04:48:46.807Z,46.44
2023-06-20T04:49:46.835Z,46.43
2023-06-20T04:50:46.869Z,46.44
2023-06-20T04:51:46.944Z,46.44
2023-06-20T04:52:46.962Z,46.49
2023-06-20T04:53:47.037Z,46.43
2023-06-20T04:54:47.105Z,46.45
2023-06-20T04:55:47.182Z,46.44
2023-06-20T04:56:47.229Z,46.49
2023-06-20T04:57:47.307Z,46.45
2023-06-20T04:58:47.360Z,46.39
2023-06-20T04:59:47.397Z,46.43
2023-06-20T05:00:47.464Z,46.45
2023-06-20T05:01:47.521Z,46.39
2023-06-20T05:02:47.591Z,46.42
2023-06-20T05:03:49.520Z,46.46
2023-06-20T05:04:47.669Z,46.45
2023-06-20T05:05:47.720Z,46.46
2023-06-20T05:06:49.612Z,46.46
2023-06-20T05:07:47.846Z,46.42
2023-06-20T05:08:47.945Z,46.45
2023-06-20T05:09:47.982Z,46.41
2023-06-20T05:10:48.023Z,46.44
2023-06-20T05:11:48.094Z,46.42
2023-06-20T05:12:48.124Z,46.44
2023-06-20T05:13:48.180Z,46.44
2023-06-20T05:14:48.273Z,46.45
2023-06-20T05:15:48.349Z,46.44
2023-06-20T05:16:48.380Z,46.42
2023-06-20T05:17:48.447Z,46.41
2023-06-20T05:18:48.476Z,46.41
2023-06-20T05:19:48.533Z,46.45
2023-06-20T05:20:48.619Z,46.42
2023-06-20T05:21:48.657Z,46.44
2023-06-20T05:22:48.756Z,46.46
2023-06-20T05:23:48.806Z,46.44
2023-06-20T05:24:48.927Z,46.43
2023-06-20T05:25:48.911Z,46.43
2023-06-20T05:26:48.933Z,46.43
2023-06-20T05:27:49.008Z,46.42
2023-06-20T05:28:49.073Z,46.47
2023-06-20T05:29:49.139Z,46.43
2023-06-20T05:30:49.185Z,46.38
2023-06-20T05:31:49.342Z,46.45
2023-06-20T05:32:49.491Z,46.43
2023-06-20T05:33:49.364Z,46.44
2023-06-20T05:34:49.428Z,46.40
2023-06-20T05:35:49.452Z,46.41
2023-06-20T05:36:49.537Z,46.41
2023-06-20T05:37:49.586Z,46.42
2023-06-20T05:38:49.675Z,46.41
2023-06-20T05:39:49.724Z,46.42
2023-06-20T05:40:49.785Z,46.38
2023-06-20T05:41:49.856Z,46.42
2023-06-20T05:42:49.930Z,46.41
2023-06-20T05:43:50.040Z,46.40
2023-06-20T05:44:50.087Z,46.39
2023-06-20T05:45:50.169Z,46.43
2023-06-20T05:46:50.244Z,46.45
2023-06-20T05:47:50.320Z,46.42
2023-06-20T05:48:50.327Z,46.43
2023-06-20T05:49:50.418Z,46.41
2023-06-20T05:50:50.455Z,46.40
2023-06-20T05:51:50.505Z,46.38
2023-06-20T05:52:50.596Z,46.41
2023-06-20T05:53:50.631Z,46.40
2023-06-20T05:54:50.741Z,46.38
2023-06-20T05:55:50.787Z,46.38
2023-06-20T05:56:50.836Z,46.57
2023-06-20T05:57:50.869Z,46.71
2023-06-20T05:58:50.946Z,46.76
2023-06-20T05:59:51.082Z,46.81
2023-06-20T06:00:51.075Z,46.93
2023-06-20T06:01:51.126Z,46.98
2023-06-20T06:02:51.246Z,46.99
2023-06-20T06:03:51.318Z,47.12
2023-06-20T06:04:51.403Z,47.41
2023-06-20T06:05:51.346Z,47.34
2023-06-20T06:06:51.368Z,47.30
2023-06-20T06:07:51.446Z,47.24
2023-06-20T06:08:51.489Z,47.20
2023-06-20T06:09:51.539Z,47.17
2023-06-20T06:10:51.551Z,47.24
2023-06-20T06:11:51.606Z,47.18
2023-06-20T06:12:51.658Z,47.27
2023-06-20T06:13:51.665Z,47.25
2023-06-20T06:14:51.707Z,47.24
2023-06-20T06:16:52.808Z,47.26
2023-06-20T06:17:51.796Z,47.28
2023-06-20T06:18:51.719Z,47.27
2023-06-20T06:19:51.757Z,47.27
2023-06-20T06:20:51.692Z,47.33
2023-06-20T06:21:51.707Z,47.36
2023-06-20T06:22:51.714Z,47.35
2023-06-20T06:23:51.672Z,47.41
2023-06-20T06:24:51.686Z,47.43
2023-06-20T06:25:51.711Z,47.43
2023-06-20T06:26:51.690Z,47.49
2023-06-20T06:27:53.614Z,47.52
2023-06-20T06:28:51.676Z,47.51
2023-06-20T06:29:51.656Z,47.61
2023-06-20T06:30:51.677Z,47.70
2023-06-20T06:31:51.629Z,47.73
2023-06-20T06:32:51.661Z,47.76
2023-06-20T06:33:51.594Z,47.89
2023-06-20T06:34:51.653Z,47.84
2023-06-20T06:35:51.622Z,47.88
2023-06-20T06:36:51.657Z,47.92
2023-06-20T06:37:51.625Z,47.93
2023-06-20T06:38:51.806Z,47.93
2023-06-20T06:39:51.644Z,48.12
2023-06-20T06:40:51.600Z,48.06
2023-06-20T06:41:51.567Z,48.13
2023-06-20T06:42:51.684Z,48.06
2023-06-20T06:43:51.551Z,48.14
2023-06-20T06:44:51.572Z,48.11
2023-06-20T06:45:51.559Z,48.08
2023-06-20T06:46:51.584Z,48.10
2023-06-20T06:47:51.557Z,48.15
2023-06-20T06:48:51.548Z,48.13
2023-06-20T06:49:51.517Z,48.19
2023-06-20T06:50:51.537Z,48.21
2023-06-20T06:51:51.764Z,48.24
2023-06-20T06:52:51.510Z,48.29
2023-06-20T06:53:51.488Z,48.37
2023-06-20T06:54:51.497Z,48.40
2023-06-20T06:55:51.498Z,48.43
2023-06-20T06:56:51.488Z,48.52
2023-06-20T06:57:51.459Z,48.52
2023-06-20T06:58:51.490Z,48.58
2023-06-20T06:59:51.458Z,48.56
2023-06-20T07:00:51.455Z,48.56
2023-06-20T07:01:51.434Z,48.61
2023-06-20T07:02:51.448Z,48.59
2023-06-20T07:03:51.490Z,48.63
2023-06-20T07:04:51.470Z,48.70
2023-06-20T07:05:51.448Z,48.69
2023-06-20T07:06:51.549Z,48.77
2023-06-20T07:07:51.486Z,48.82
2023-06-20T07:08:51.409Z,48.99
2023-06-20T07:09:51.406Z,49.09
2023-06-20T07:10:51.396Z,49.13
2023-06-20T07:11:51.391Z,49.17
2023-06-20T07:12:53.826Z,49.23
2023-06-20T07:13:51.370Z,49.37
2023-06-20T07:14:51.556Z,49.40
2023-06-20T07:15:51.405Z,49.50
2023-06-20T07:17:04.543Z,49.53
2023-06-20T07:17:52.440Z,49.56
2023-06-20T07:18:51.334Z,49.60
2023-06-20T07:19:51.332Z,49.76
2023-06-20T07:20:51.362Z,49.84
2023-06-20T07:21:51.321Z,49.86
2023-06-20T07:22:51.342Z,49.96
2023-06-20T07:23:51.335Z,50.06
2023-06-20T07:24:53.285Z,50.23
2023-06-20T07:25:51.277Z,50.24
2023-06-20T07:26:51.320Z,50.25
2023-06-20T07:27:51.294Z,50.38
2023-06-20T07:28:51.286Z,50.38
2023-06-20T07:29:51.300Z,50.52
2023-06-20T07:30:51.288Z,50.56
2023-06-20T07:31:51.309Z,50.64
2023-06-20T07:32:51.307Z,50.74
2023-06-20T07:33:51.252Z,50.78
2023-06-20T07:34:51.291Z,50.85
2023-06-20T07:35:51.210Z,50.93
2023-06-20T07:36:51.244Z,51.03
2023-06-20T07:37:51.200Z,51.04
2023-06-20T07:38:51.179Z,51.02
2023-06-20T07:39:51.210Z,51.19
2023-06-20T07:40:51.176Z,51.19
2023-06-20T07:41:51.179Z,51.06
2023-06-20T07:42:51.195Z,51.05
2023-06-20T07:43:51.196Z,50.93
2023-06-20T07:44:51.235Z,50.91
2023-06-20T07:45:51.181Z,50.86
2023-06-20T07:46:51.158Z,50.72
2023-06-20T07:47:51.415Z,50.63
2023-06-20T07:48:51.134Z,50.55
2023-06-20T07:49:51.173Z,50.51
2023-06-20T07:50:51.142Z,50.45
2023-06-20T07:51:51.134Z,50.44
2023-06-20T07:52:51.135Z,50.42
2023-06-20T07:53:51.200Z,50.43
2023-06-20T07:54:51.161Z,50.43
2023-06-20T07:55:51.172Z,50.41
2023-06-20T07:56:51.153Z,50.43
2023-06-20T07:57:51.168Z,50.40
2023-06-20T07:58:51.273Z,50.49
2023-06-20T07:59:51.336Z,50.44
2023-06-20T08:00:51.089Z,50.46
2023-06-20T08:01:51.130Z,50.47
2023-06-20T08:02:51.116Z,50.49
2023-06-20T08:03:51.284Z,50.42
2023-06-20T08:04:51.103Z,50.45
2023-06-20T08:05:51.252Z,50.42
2023-06-20T08:06:51.040Z,50.40
2023-06-20T08:07:51.404Z,50.42
2023-06-20T08:08:51.070Z,50.36
2023-06-20T08:09:51.360Z,50.38
2023-06-20T08:10:52.652Z,50.34
2023-06-20T08:11:51.018Z,50.32
2023-06-20T08:12:50.990Z,50.35
2023-06-20T08:13:51.007Z,50.37
2023-06-20T08:14:50.993Z,50.34
2023-06-20T08:15:51.041Z,50.38
2023-06-20T08:16:50.947Z,50.34
2023-06-20T08:17:50.976Z,50.31
2023-06-20T08:18:50.995Z,50.30
2023-06-20T08:19:50.967Z,50.27
2023-06-20T08:20:50.942Z,50.32
2023-06-20T08:21:50.928Z,50.28
2023-06-20T08:22:50.920Z,50.20
2023-06-20T08:23:50.925Z,50.22
2023-06-20T08:24:50.941Z,50.28
2023-06-20T08:25:50.930Z,50.24
2023-06-20T08:26:50.989Z,50.17
2023-06-20T08:27:58.831Z,50.23
2023-06-20T08:28:51.917Z,50.20
2023-06-20T08:29:50.933Z,50.21
2023-06-20T08:30:50.932Z,50.13
2023-06-20T08:31:50.880Z,50.15
2023-06-20T08:32:50.929Z,50.14
2023-06-20T08:33:50.867Z,50.12
2023-06-20T08:34:52.370Z,50.09
2023-06-20T08:35:50.848Z,49.99
2023-06-20T08:36:50.855Z,50.00
2023-06-20T08:37:50.845Z,50.04
2023-06-20T08:38:50.821Z,50.04
2023-06-20T08:39:50.852Z,49.95
2023-06-20T08:40:50.835Z,49.88
2023-06-20T08:41:50.822Z,49.88
2023-06-20T08:42:50.983Z,49.83
2023-06-20T08:43:50.804Z,49.83
2023-06-20T08:44:57.058Z,49.60
2023-06-20T08:45:51.816Z,49.46
2023-06-20T08:46:50.818Z,49.33
2023-06-20T08:47:50.781Z,49.35
2023-06-20T08:48:52.926Z,49.29
2023-06-20T08:49:50.815Z,49.25
2023-06-20T08:50:50.987Z,49.54
2023-06-20T08:51:50.932Z,49.48
2023-06-20T08:52:50.903Z,49.69
2023-06-20T08:53:50.962Z,49.94
2023-06-20T08:54:50.947Z,50.16
2023-06-20T08:55:50.966Z,50.38
2023-06-20T08:56:50.990Z,50.42
2023-06-20T08:57:51.224Z,50.50
2023-06-20T08:58:51.101Z,50.47
2023-06-20T08:59:51.082Z,50.63
2023-06-20T09:00:51.101Z,50.65
2023-06-20T09:01:51.211Z,50.78
2023-06-20T09:02:51.200Z,50.94
2023-06-20T09:03:51.186Z,51.07
2023-06-20T09:04:51.148Z,51.04
2023-06-20T09:05:51.164Z,51.12
2023-06-20T09:06:51.162Z,51.07
2023-06-20T09:07:51.196Z,51.02
2023-06-20T09:08:51.139Z,51.16
2023-06-20T09:09:51.165Z,51.22
2023-06-20T09:10:51.172Z,51.20
2023-06-20T09:11:51.205Z,51.26
2023-06-20T09:12:51.186Z,51.28
2023-06-20T09:13:51.182Z,51.25
2023-06-20T09:14:51.736Z,51.30
2023-06-20T09:15:51.166Z,51.30
2023-06-20T09:16:51.279Z,51.27
2023-06-20T09:17:51.252Z,51.36
2023-06-20T09:18:51.182Z,51.46
2023-06-20T09:19:51.152Z,51.41
2023-06-20T09:20:51.249Z,51.41
2023-06-20T09:22:00.691Z,51.42
2023-06-20T09:22:52.144Z,51.49
2023-06-20T09:23:51.142Z,51.66
2023-06-20T09:24:51.146Z,51.65
2023-06-20T09:25:51.130Z,51.66
2023-06-20T09:26:51.112Z,51.68
2023-06-20T09:27:51.149Z,51.74
2023-06-20T09:28:51.114Z,51.65
2023-06-20T09:29:51.117Z,51.68
2023-06-20T09:30:51.260Z,51.62
2023-06-20T09:31:51.061Z,51.55
2023-06-20T09:32:51.147Z,51.57
2023-06-20T09:33:51.123Z,51.52
2023-06-20T09:34:51.280Z,51.45
2023-06-20T09:35:51.259Z,51.36
2023-06-20T09:36:51.285Z,51.40
2023-06-20T09:37:51.335Z,51.35
2023-06-20T09:38:51.427Z,51.27
2023-06-20T09:39:51.495Z,51.33
2023-06-20T09:40:51.584Z,51.36
2023-06-20T09:41:51.610Z,51.29
2023-06-20T09:42:51.683Z,51.26
2023-06-20T09:43:51.736Z,51.35
2023-06-20T09:44:51.817Z,51.41
2023-06-20T09:45:51.878Z,51.57
2023-06-20T09:46:51.985Z,51.21
2023-06-20T09:47:52.063Z,51.01
2023-06-20T09:48:52.015Z,50.92
2023-06-20T09:49:52.062Z,50.94
2023-06-20T09:50:52.156Z,50.91
2023-06-20T09:51:52.181Z,50.87
2023-06-20T09:52:52.288Z,50.81
2023-06-20T09:53:52.316Z,50.90
2023-06-20T09:54:52.377Z,50.96
2023-06-20T09:55:52.390Z,50.94
2023-06-20T09:56:52.440Z,51.24
2023-06-20T09:57:52.550Z,51.16
2023-06-20T09:58:52.576Z,51.04
2023-06-20T09:59:52.645Z,51.08
2023-06-20T10:00:52.709Z,51.02
2023-06-20T10:01:54.382Z,51.12
2023-06-20T10:02:52.824Z,51.22
2023-06-20T10:03:52.903Z,51.31
2023-06-20T10:04:52.759Z,51.26
2023-06-20T10:05:52.727Z,51.31
2023-06-20T10:06:52.739Z,51.21
2023-06-20T10:07:52.751Z,51.16
2023-06-20T10:08:52.705Z,51.28
2023-06-20T10:09:52.747Z,51.38
2023-06-20T10:10:52.717Z,51.40
2023-06-20T10:11:52.674Z,51.55
2023-06-20T10:12:52.691Z,51.42
2023-06-20T10:13:52.722Z,51.44
2023-06-20T10:14:52.734Z,51.32
2023-06-20T10:15:52.678Z,51.52
2023-06-20T10:16:52.703Z,51.53
2023-06-20T10:17:52.830Z,51.38
2023-06-20T10:18:52.741Z,51.63
2023-06-20T10:19:52.757Z,51.60
2023-06-20T10:20:52.655Z,51.57
2023-06-20T10:21:52.696Z,51.46
2023-06-20T10:22:52.648Z,51.61
2023-06-20T10:23:52.630Z,52.00
2023-06-20T10:24:52.666Z,51.94
2023-06-20T10:25:52.617Z,51.84
2023-06-20T10:26:52.620Z,51.68
2023-06-20T10:27:52.606Z,51.70
2023-06-20T10:28:52.581Z,51.75
2023-06-20T10:29:52.603Z,51.61
2023-06-20T10:30:52.584Z,51.58
2023-06-20T10:31:52.693Z,51.60
2023-06-20T10:32:52.600Z,51.75
2023-06-20T10:33:52.562Z,52.11
2023-06-20T10:34:52.591Z,52.01
2023-06-20T10:35:52.570Z,51.91
2023-06-20T10:36:52.536Z,51.81
2023-06-20T10:37:52.526Z,51.71
2023-06-20T10:38:52.521Z,51.64
2023-06-20T10:39:52.528Z,51.68
2023-06-20T10:40:52.532Z,51.69
2023-06-20T10:41:52.512Z,51.74
2023-06-20T10:42:52.525Z,51.78
2023-06-20T10:43:52.480Z,51.72
2023-06-20T10:44:52.516Z,51.68
2023-06-20T10:45:52.508Z,51.78
2023-06-20T10:46:52.483Z,51.77
2023-06-20T10:47:52.552Z,51.80
2023-06-20T10:48:52.576Z,51.80
2023-06-20T10:49:52.618Z,51.84
2023-06-20T10:50:52.868Z,51.78
2023-06-20T10:51:52.753Z,51.77
2023-06-20T10:52:52.800Z,51.80
2023-06-20T10:53:52.877Z,51.81
2023-06-20T10:54:52.903Z,51.88
2023-06-20T10:55:52.992Z,51.89
2023-06-20T10:56:52.979Z,51.90
2023-06-20T10:57:53.050Z,51.88
2023-06-20T10:58:53.044Z,51.75
2023-06-20T10:59:53.125Z,51.68
2023-06-20T11:00:53.198Z,51.57
2023-06-20T11:01:53.225Z,51.61
2023-06-20T11:02:53.386Z,51.63
2023-06-20T11:03:53.329Z,51.62
2023-06-20T11:04:53.372Z,51.60
2023-06-20T11:05:53.394Z,51.57
2023-06-20T11:06:53.439Z,51.52
2023-06-20T11:07:53.458Z,51.54
2023-06-20T11:08:53.520Z,51.51
2023-06-20T11:09:53.549Z,51.56
2023-06-20T11:10:53.577Z,51.56
2023-06-20T11:11:53.643Z,51.60
2023-06-20T11:12:53.650Z,51.61
2023-06-20T11:13:53.663Z,51.55
2023-06-20T11:14:53.716Z,51.52
2023-06-20T11:15:53.663Z,51.51
2023-06-20T11:16:53.679Z,51.52
2023-06-20T11:17:53.763Z,51.50
2023-06-20T11:18:54.703Z,51.53
2023-06-20T11:19:53.713Z,51.51
2023-06-20T11:20:53.677Z,51.49
2023-06-20T11:21:53.688Z,51.49
2023-06-20T11:22:53.694Z,51.47
2023-06-20T11:23:53.707Z,51.48
2023-06-20T11:24:53.860Z,51.44
2023-06-20T11:25:55.952Z,51.46
2023-06-20T11:26:53.659Z,51.43
2023-06-20T11:27:53.629Z,51.41
2023-06-20T11:29:05.966Z,51.39
2023-06-20T11:29:54.634Z,51.39
2023-06-20T11:30:53.680Z,51.39
2023-06-20T11:31:53.588Z,51.42
2023-06-20T11:32:53.671Z,51.42
2023-06-20T11:33:53.580Z,51.37
2023-06-20T11:34:53.593Z,51.43
2023-06-20T11:35:53.559Z,51.43
2023-06-20T11:36:53.575Z,51.39
2023-06-20T11:37:53.570Z,51.43
2023-06-20T11:38:53.536Z,51.43
2023-06-20T11:39:53.783Z,51.44
2023-06-20T11:40:53.697Z,51.43
2023-06-20T11:41:53.658Z,51.38
2023-06-20T11:42:53.548Z,51.41
2023-06-20T11:43:53.512Z,51.41
2023-06-20T11:44:53.514Z,51.37
2023-06-20T11:45:53.595Z,51.43
2023-06-20T11:46:53.922Z,51.41
2023-06-20T11:47:53.536Z,51.42
2023-06-20T11:48:53.527Z,51.42
2023-06-20T11:49:53.772Z,51.40
2023-06-20T11:50:53.508Z,51.45
2023-06-20T11:51:53.445Z,51.42
2023-06-20T11:52:53.478Z,51.44
2023-06-20T11:53:53.696Z,51.39
2023-06-20T11:54:53.697Z,51.44
2023-06-20T11:55:53.453Z,51.49
2023-06-20T11:56:53.446Z,51.46
2023-06-20T11:57:53.470Z,51.45
2023-06-20T11:58:53.438Z,51.44
2023-06-20T11:59:53.459Z,51.40
2023-06-20T12:00:53.447Z,51.42
2023-06-20T12:01:53.510Z,51.40
2023-06-20T12:02:53.562Z,51.37
2023-06-20T12:03:53.491Z,51.41
2023-06-20T12:04:53.460Z,51.34
2023-06-20T12:05:53.453Z,51.36
2023-06-20T12:06:53.460Z,51.39
2023-06-20T12:07:53.470Z,51.33
2023-06-20T12:08:53.483Z,51.30
2023-06-20T12:09:53.658Z,51.34
2023-06-20T12:10:53.767Z,51.30
2023-06-20T12:11:53.825Z,51.29
2023-06-20T12:12:53.510Z,51.30
2023-06-20T12:13:53.517Z,51.26
2023-06-20T12:14:53.590Z,51.24
2023-06-20T12:15:53.765Z,51.23
2023-06-20T12:16:53.510Z,51.26
2023-06-20T12:17:53.586Z,51.26
2023-06-20T12:18:53.531Z,51.18
2023-06-20T12:19:53.527Z,51.19
2023-06-20T12:21:02.696Z,51.21
2023-06-20T12:21:54.494Z,51.19
2023-06-20T12:22:53.512Z,51.20
2023-06-20T12:23:53.513Z,51.19
2023-06-20T12:24:53.506Z,51.19
2023-06-20T12:25:53.476Z,51.15
2023-06-20T12:26:53.482Z,51.18
2023-06-20T12:27:53.459Z,51.16
2023-06-20T12:28:53.471Z,51.15
2023-06-20T12:29:53.475Z,51.13
2023-06-20T12:30:53.598Z,51.12
2023-06-20T12:31:53.489Z,51.09
2023-06-20T12:32:53.501Z,51.04
2023-06-20T12:33:53.421Z,51.08
2023-06-20T12:34:53.499Z,51.02
2023-06-20T12:35:53.437Z,51.06
2023-06-20T12:36:53.404Z,51.00
2023-06-20T12:37:53.415Z,51.01
2023-06-20T12:38:53.397Z,51.02
2023-06-20T12:39:53.378Z,51.01
2023-06-20T12:40:53.407Z,51.02
2023-06-20T12:41:53.369Z,50.96
2023-06-20T12:42:53.380Z,51.04
2023-06-20T12:43:53.386Z,50.96
2023-06-20T12:44:53.372Z,50.94
2023-06-20T12:45:53.397Z,50.96
2023-06-20T12:46:53.363Z,50.91
2023-06-20T12:47:53.437Z,50.91
2023-06-20T12:48:53.360Z,50.86
2023-06-20T12:49:53.430Z,50.87
2023-06-20T12:50:53.337Z,50.90
2023-06-20T12:51:53.328Z,50.86
2023-06-20T12:52:53.366Z,50.80
2023-06-20T12:53:53.347Z,50.79